createdAt,value
2017-08-08T00:00:43.333Z,17.40
2017-08-08T00:03:09.586Z,17.40
2017-08-08T00:05:35.886Z,17.20
2017-08-08T00:08:02.153Z,17.30
2017-08-08T00:10:28.802Z,17.30
2017-08-08T00:12:55.061Z,17.20
2017-08-08T00:15:21.338Z,17.30
2017-08-08T00:17:47.631Z,17.20
2017-08-08T00:20:13.896Z,17.20
2017-08-08T00:22:40.174Z,17.20
2017-08-08T00:25:06.455Z,17.20
2017-08-08T00:27:32.789Z,17.20
2017-08-08T00:29:59.059Z,17.00
2017-08-08T00:32:25.338Z,16.90
2017-08-08T00:34:51.626Z,17.00
2017-08-08T00:37:18.314Z,17.20
2017-08-08T00:39:44.608Z,17.10
2017-08-08T00:42:10.908Z,17.00
2017-08-08T00:44:37.205Z,17.00
2017-08-08T00:47:03.515Z,17.10
2017-08-08T00:49:29.827Z,17.10
2017-08-08T00:51:56.084Z,17.10
2017-08-08T00:54:22.402Z,17.00
2017-08-08T00:56:48.678Z,17.00
2017-08-08T00:59:14.961Z,16.90
2017-08-08T01:01:41.238Z,16.70
2017-08-08T01:04:07.526Z,16.70
2017-08-08T01:06:33.792Z,16.90
2017-08-08T01:09:00.093Z,16.90
2017-08-08T01:11:26.393Z,17.00
2017-08-08T01:13:52.703Z,17.00
2017-08-08T01:16:18.976Z,16.90
2017-08-08T01:18:45.258Z,17.00
2017-08-08T01:21:11.566Z,16.90
2017-08-08T01:23:37.851Z,17.00
2017-08-08T01:26:04.132Z,16.90
2017-08-08T01:28:30.445Z,16.90
2017-08-08T01:30:57.189Z,16.80
2017-08-08T01:33:23.484Z,16.90
2017-08-08T01:35:49.785Z,16.90
2017-08-08T01:38:16.456Z,16.90
2017-08-08T01:40:42.728Z,16.90
2017-08-08T01:43:09.359Z,16.90
2017-08-08T01:45:35.672Z,16.80
2017-08-08T01:48:01.977Z,16.80
2017-08-08T01:50:28.289Z,16.70
2017-08-08T01:52:54.603Z,16.60
2017-08-08T01:55:20.902Z,16.40
2017-08-08T01:57:47.543Z,16.50
2017-08-08T02:00:13.840Z,16.60
2017-08-08T02:02:40.143Z,16.70
2017-08-08T02:05:06.827Z,16.50
2017-08-08T02:07:33.098Z,16.50
2017-08-08T02:09:59.385Z,16.50
2017-08-08T02:12:25.709Z,16.60
2017-08-08T02:14:52.029Z,16.70
2017-08-08T02:17:18.291Z,16.70
2017-08-08T02:19:44.589Z,16.70
2017-08-08T02:22:10.889Z,16.80
2017-08-08T02:24:37.190Z,16.80
2017-08-08T02:27:03.510Z,16.60
2017-08-08T02:29:29.805Z,16.60
2017-08-08T02:31:56.106Z,16.60
2017-08-08T02:34:22.779Z,16.60
2017-08-08T02:36:49.099Z,16.60
2017-08-08T02:39:15.381Z,16.60
2017-08-08T02:41:41.650Z,16.60
2017-08-08T02:44:07.954Z,16.60
2017-08-08T02:46:34.219Z,16.60
2017-08-08T02:49:00.499Z,16.60
2017-08-08T02:51:26.783Z,16.60
2017-08-08T02:53:53.093Z,16.60
2017-08-08T02:56:19.381Z,16.60
2017-08-08T02:58:45.682Z,16.60
2017-08-08T03:01:11.983Z,16.60
2017-08-08T03:03:38.250Z,16.40
2017-08-08T03:06:04.528Z,16.30
2017-08-08T03:08:31.182Z,16.40
2017-08-08T03:10:57.463Z,16.40
2017-08-08T03:13:23.723Z,16.40
2017-08-08T03:15:49.983Z,16.50
2017-08-08T03:18:16.254Z,16.50
2017-08-08T03:20:42.554Z,16.50
2017-08-08T03:23:08.871Z,16.50
2017-08-08T03:25:35.128Z,16.50
2017-08-08T03:28:01.409Z,16.50
2017-08-08T03:30:27.696Z,16.50
2017-08-08T03:32:54.955Z,16.50
2017-08-08T03:35:22.130Z,16.30
2017-08-08T03:37:48.750Z,16.20
2017-08-08T03:40:15.037Z,16.20
2017-08-08T03:42:41.310Z,16.30
2017-08-08T03:45:07.602Z,16.30
2017-08-08T03:47:34.692Z,16.30
2017-08-08T03:50:00.974Z,16.30
2017-08-08T03:52:27.271Z,16.20
2017-08-08T03:54:53.554Z,16.10
2017-08-08T03:57:19.820Z,16.20
2017-08-08T03:59:46.475Z,16.30
2017-08-08T04:02:12.743Z,16.30
2017-08-08T04:04:39.029Z,16.40
2017-08-08T04:07:05.609Z,16.40
2017-08-08T04:09:31.876Z,16.40
2017-08-08T04:11:58.130Z,16.40
2017-08-08T04:14:24.417Z,16.30
2017-08-08T04:16:50.662Z,16.20
2017-08-08T04:19:17.325Z,16.30
2017-08-08T04:21:43.598Z,16.40
2017-08-08T04:24:09.886Z,16.40
2017-08-08T04:26:36.142Z,16.40
2017-08-08T04:29:02.703Z,16.50
2017-08-08T04:31:28.962Z,16.60
2017-08-08T04:33:55.232Z,16.60
2017-08-08T04:36:21.516Z,16.70
2017-08-08T04:38:48.149Z,16.80
2017-08-08T04:41:14.427Z,16.80
2017-08-08T04:43:40.721Z,16.90
2017-08-08T04:46:07.019Z,16.90
2017-08-08T04:48:33.280Z,16.90
2017-08-08T04:50:59.928Z,17.00
2017-08-08T04:53:26.211Z,17.00
2017-08-08T04:55:52.510Z,16.90
2017-08-08T04:58:18.802Z,16.80
2017-08-08T05:00:45.131Z,16.80
2017-08-08T05:03:11.395Z,16.80
2017-08-08T05:05:37.698Z,17.00
2017-08-08T05:08:03.982Z,17.10
2017-08-08T05:10:30.258Z,17.20
2017-08-08T05:12:56.526Z,17.20
2017-08-08T05:15:22.837Z,17.30
2017-08-08T05:17:49.106Z,17.30
2017-08-08T05:20:15.744Z,17.30
2017-08-08T05:22:42.025Z,17.20
2017-08-08T05:25:08.338Z,17.20
2017-08-08T05:27:34.657Z,17.30
2017-08-08T05:30:00.953Z,17.40
2017-08-08T05:32:27.263Z,17.30
2017-08-08T05:34:53.512Z,17.50
2017-08-08T05:37:19.821Z,17.60
2017-08-08T05:39:46.135Z,17.70
2017-08-08T05:42:12.670Z,17.80
2017-08-08T05:44:38.990Z,17.80
2017-08-08T05:47:05.271Z,18.00
2017-08-08T05:49:31.566Z,18.20
2017-08-08T05:51:57.841Z,18.40
2017-08-08T05:54:24.132Z,18.50
2017-08-08T05:56:50.405Z,18.70
2017-08-08T05:59:16.698Z,18.80
2017-08-08T06:01:42.956Z,18.90
2017-08-08T06:04:09.286Z,19.00
2017-08-08T06:06:35.590Z,19.00
2017-08-08T06:09:01.931Z,18.90
2017-08-08T06:11:28.241Z,18.90
2017-08-08T06:13:54.521Z,19.00
2017-08-08T06:16:20.810Z,19.10
2017-08-08T06:18:47.058Z,19.20
2017-08-08T06:21:13.320Z,19.20
2017-08-08T06:23:39.595Z,19.40
2017-08-08T06:26:06.208Z,19.60
2017-08-08T06:28:32.465Z,19.60
2017-08-08T06:30:58.718Z,19.60
2017-08-08T06:33:25.010Z,19.70
2017-08-08T06:35:51.262Z,19.90
2017-08-08T06:38:17.918Z,20.10
2017-08-08T06:40:44.189Z,20.30
2017-08-08T06:43:10.449Z,20.50
2017-08-08T06:45:36.781Z,20.70
2017-08-08T06:48:03.052Z,20.80
2017-08-08T06:50:29.333Z,20.90
2017-08-08T06:52:55.660Z,21.00
2017-08-08T06:55:22.330Z,20.90
2017-08-08T06:57:48.677Z,20.80
2017-08-08T07:00:15.312Z,20.40
2017-08-08T07:02:41.611Z,20.40
2017-08-08T07:05:07.947Z,20.10
2017-08-08T07:07:34.229Z,20.00
2017-08-08T07:10:00.502Z,19.90
2017-08-08T07:12:26.790Z,19.90
2017-08-08T07:14:53.067Z,20.00
2017-08-08T07:17:19.367Z,19.90
2017-08-08T07:19:45.662Z,20.00
2017-08-08T07:22:12.252Z,20.20
2017-08-08T07:24:38.522Z,19.90
2017-08-08T07:27:04.836Z,20.00
2017-08-08T07:29:31.168Z,20.10
2017-08-08T07:31:57.447Z,20.00
2017-08-08T07:34:23.740Z,20.00
2017-08-08T07:36:50.381Z,20.50
2017-08-08T07:39:17.310Z,20.50
2017-08-08T07:41:43.582Z,20.50
2017-08-08T07:44:09.837Z,20.60
2017-08-08T07:46:36.108Z,20.70
2017-08-08T07:49:02.740Z,21.00
2017-08-08T07:51:29.023Z,21.00
2017-08-08T07:53:56.850Z,21.20
2017-08-08T07:56:23.502Z,21.40
2017-08-08T07:58:49.766Z,21.40
2017-08-08T08:01:16.442Z,21.50
2017-08-08T08:03:42.744Z,21.70
2017-08-08T08:06:09.096Z,21.70
2017-08-08T08:08:35.409Z,21.90
2017-08-08T08:11:01.749Z,22.20
2017-08-08T08:13:28.078Z,22.10
2017-08-08T08:15:54.449Z,22.40
2017-08-08T08:18:21.073Z,22.50
2017-08-08T08:20:47.372Z,22.60
2017-08-08T08:23:13.656Z,22.70
2017-08-08T08:25:39.936Z,22.70
2017-08-08T08:28:06.225Z,22.70
2017-08-08T08:30:40.409Z,22.80
2017-08-08T08:33:06.808Z,22.90
2017-08-08T08:35:34.393Z,23.10
2017-08-08T08:38:04.079Z,22.90
2017-08-08T08:40:30.443Z,23.00
2017-08-08T08:42:56.758Z,23.00
2017-08-08T08:45:23.428Z,23.00
2017-08-08T08:47:49.715Z,23.00
2017-08-08T08:50:16.900Z,23.10
2017-08-08T08:52:43.185Z,22.70
2017-08-08T08:55:09.474Z,22.90
2017-08-08T08:57:35.776Z,23.00
2017-08-08T09:00:02.111Z,22.90
2017-08-08T09:02:28.444Z,23.00
2017-08-08T09:04:56.051Z,23.50
2017-08-08T09:07:22.302Z,23.50
2017-08-08T09:09:48.607Z,23.20
2017-08-08T09:12:14.865Z,23.30
2017-08-08T09:14:41.161Z,23.70
2017-08-08T09:17:07.431Z,23.90
2017-08-08T09:19:33.729Z,24.30
2017-08-08T09:21:59.991Z,24.80
2017-08-08T09:24:26.304Z,24.80
2017-08-08T09:26:52.577Z,24.80
2017-08-08T09:29:19.304Z,24.90
2017-08-08T09:31:45.601Z,25.40
2017-08-08T09:34:11.860Z,25.90
2017-08-08T09:36:38.514Z,26.30
2017-08-08T09:39:04.784Z,26.30
2017-08-08T09:41:31.143Z,26.00
2017-08-08T09:43:57.804Z,26.20
2017-08-08T09:46:24.132Z,26.20
2017-08-08T09:48:50.403Z,26.30
2017-08-08T09:51:17.571Z,26.20
2017-08-08T09:53:43.853Z,26.20
2017-08-08T09:56:10.161Z,26.50
2017-08-08T09:58:36.835Z,27.70
2017-08-08T10:01:03.130Z,27.70
2017-08-08T10:03:29.422Z,28.20
2017-08-08T10:05:55.704Z,28.10
2017-08-08T10:08:22.403Z,27.80
2017-08-08T10:10:48.691Z,27.90
2017-08-08T10:13:14.993Z,27.90
2017-08-08T10:15:41.672Z,27.70
2017-08-08T10:18:08.000Z,27.70
2017-08-08T10:20:34.310Z,27.90
2017-08-08T10:23:00.669Z,28.20
2017-08-08T10:25:26.958Z,28.70
2017-08-08T10:27:53.263Z,28.50
2017-08-08T10:30:19.578Z,28.40
2017-08-08T10:32:45.869Z,28.00
2017-08-08T10:35:12.117Z,27.70
2017-08-08T10:37:38.770Z,27.70
2017-08-08T10:40:05.034Z,27.70
2017-08-08T10:42:31.285Z,27.20
2017-08-08T10:44:57.565Z,27.00
2017-08-08T10:47:23.853Z,26.60
2017-08-08T10:49:50.120Z,27.10
2017-08-08T10:52:16.417Z,27.10
2017-08-08T10:54:42.950Z,27.10
2017-08-08T10:57:09.238Z,27.20
2017-08-08T10:59:35.511Z,27.40
2017-08-08T11:02:01.789Z,27.80
2017-08-08T11:04:28.650Z,28.40
2017-08-08T11:06:54.944Z,29.00
2017-08-08T11:09:21.231Z,29.70
2017-08-08T11:11:47.514Z,30.40
2017-08-08T11:14:13.779Z,31.00
2017-08-08T11:16:40.058Z,31.30
2017-08-08T11:19:06.345Z,31.30
2017-08-08T11:21:32.622Z,30.90
2017-08-08T11:23:58.893Z,31.10
2017-08-08T11:26:25.183Z,30.80
2017-08-08T11:28:51.531Z,30.30
2017-08-08T11:31:18.194Z,30.50
2017-08-08T11:33:44.523Z,30.50
2017-08-08T11:36:10.824Z,30.80
2017-08-08T11:38:37.121Z,31.20
2017-08-08T11:41:03.767Z,31.70
2017-08-08T11:43:30.051Z,32.40
2017-08-08T11:45:56.316Z,32.80
2017-08-08T11:48:22.596Z,32.40
2017-08-08T11:50:49.216Z,34.60
2017-08-08T11:53:15.494Z,34.60
2017-08-08T11:55:41.762Z,36.00
2017-08-08T11:58:08.066Z,36.50
2017-08-08T12:00:34.368Z,35.30
2017-08-08T12:03:00.647Z,34.30
2017-08-08T12:05:26.892Z,33.60
2017-08-08T12:07:53.186Z,33.00
2017-08-08T12:10:19.465Z,32.20
2017-08-08T12:12:46.187Z,30.40
2017-08-08T12:15:12.496Z,30.40
2017-08-08T12:17:38.791Z,30.00
2017-08-08T12:20:05.093Z,29.80
2017-08-08T12:22:31.353Z,29.70
2017-08-08T12:24:57.687Z,29.80
2017-08-08T12:27:23.994Z,30.00
2017-08-08T12:29:50.539Z,29.70
2017-08-08T12:32:16.795Z,29.50
2017-08-08T12:34:43.067Z,29.30
2017-08-08T12:37:09.353Z,28.90
2017-08-08T12:39:35.655Z,28.90
2017-08-08T12:42:01.959Z,28.80
2017-08-08T12:44:28.234Z,28.70
2017-08-08T12:46:54.799Z,28.80
2017-08-08T12:49:21.072Z,28.60
2017-08-08T12:51:47.342Z,28.30
2017-08-08T12:54:13.622Z,27.80
2017-08-08T12:56:39.909Z,27.70
2017-08-08T12:59:06.223Z,27.10
2017-08-08T13:01:32.499Z,26.40
2017-08-08T13:03:59.151Z,26.10
2017-08-08T13:06:25.830Z,25.70
2017-08-08T13:08:52.081Z,25.70
2017-08-08T13:11:18.438Z,25.50
2017-08-08T13:13:46.545Z,24.80
2017-08-08T13:16:12.831Z,24.80
2017-08-08T13:18:39.092Z,24.70
2017-08-08T13:21:05.868Z,24.50
2017-08-08T13:23:32.159Z,24.40
2017-08-08T13:25:58.447Z,24.40
2017-08-08T13:28:24.729Z,24.20
2017-08-08T13:30:51.031Z,24.10
2017-08-08T13:33:17.579Z,24.00
2017-08-08T13:35:45.489Z,24.00
2017-08-08T13:38:12.399Z,23.80
2017-08-08T13:40:38.687Z,23.50
2017-08-08T13:43:06.004Z,23.40
2017-08-08T13:45:32.306Z,23.30
2017-08-08T13:47:59.521Z,23.20
2017-08-08T13:50:26.437Z,23.00
2017-08-08T13:52:53.632Z,22.80
2017-08-08T13:55:32.138Z,22.70
2017-08-08T13:57:58.398Z,22.60
2017-08-08T14:00:24.707Z,22.30
2017-08-08T14:02:52.298Z,22.60
2017-08-08T14:05:19.130Z,22.60
2017-08-08T14:07:45.423Z,22.70
2017-08-08T14:10:12.162Z,22.40
2017-08-08T14:12:38.444Z,22.40
2017-08-08T14:15:04.741Z,22.20
2017-08-08T14:17:35.420Z,21.80
2017-08-08T14:20:02.525Z,21.80
2017-08-08T14:22:29.236Z,21.40
2017-08-08T14:24:57.145Z,21.40
2017-08-08T14:27:24.416Z,21.40
2017-08-08T14:29:50.708Z,21.50
2017-08-08T14:32:18.782Z,21.80
2017-08-08T14:34:45.460Z,21.90
2017-08-08T14:37:11.755Z,21.90
2017-08-08T14:39:41.053Z,22.10
2017-08-08T14:42:08.297Z,22.10
2017-08-08T14:44:34.589Z,21.80
2017-08-08T14:47:03.388Z,21.60
2017-08-08T14:49:29.680Z,21.60
2017-08-08T14:51:55.937Z,21.50
2017-08-08T14:54:23.082Z,21.50
2017-08-08T14:56:49.391Z,21.50
2017-08-08T14:59:15.684Z,21.40
2017-08-08T15:01:42.892Z,21.40
2017-08-08T15:04:09.927Z,21.20
2017-08-08T15:06:37.234Z,21.20
2017-08-08T15:09:07.050Z,21.10
2017-08-08T15:11:34.354Z,21.10
2017-08-08T15:14:00.655Z,21.00
2017-08-08T15:16:27.546Z,20.80
2017-08-08T15:18:54.352Z,20.90
2017-08-08T15:21:20.675Z,20.90
2017-08-08T15:23:46.983Z,20.70
2017-08-08T15:26:13.777Z,20.70
2017-08-08T15:28:41.050Z,20.40
2017-08-08T15:31:07.321Z,20.40
2017-08-08T15:33:34.361Z,20.60
2017-08-08T15:36:00.651Z,20.60
2017-08-08T15:38:27.641Z,20.70
2017-08-08T15:40:53.927Z,20.80
2017-08-08T15:43:20.870Z,20.50
2017-08-08T15:45:48.727Z,20.10
2017-08-08T15:48:15.104Z,19.90
2017-08-08T15:50:42.629Z,19.70
2017-08-08T15:53:10.699Z,19.50
2017-08-08T15:55:37.585Z,19.40
2017-08-08T15:58:03.873Z,19.50
2017-08-08T16:00:31.625Z,19.80
2017-08-08T16:02:58.318Z,20.30
2017-08-08T16:05:24.620Z,20.80
2017-08-08T16:07:52.111Z,21.10
2017-08-08T16:10:18.419Z,21.10
2017-08-08T16:12:50.932Z,21.00
2017-08-08T16:15:20.301Z,21.20
2017-08-08T16:17:48.019Z,21.60
2017-08-08T16:20:18.121Z,21.60
2017-08-08T16:22:45.731Z,21.40
2017-08-08T16:25:16.210Z,20.50
2017-08-08T16:27:43.198Z,20.60
2017-08-08T16:30:09.488Z,20.30
2017-08-08T16:32:36.455Z,19.90
2017-08-08T16:35:03.406Z,19.70
2017-08-08T16:37:29.691Z,19.40
2017-08-08T16:39:56.008Z,19.40
2017-08-08T16:42:24.964Z,19.30
2017-08-08T16:44:59.779Z,19.30
2017-08-08T16:47:30.875Z,19.30
2017-08-08T16:49:57.683Z,19.20
2017-08-08T16:52:24.508Z,19.00
2017-08-08T16:54:50.795Z,18.80
2017-08-08T16:57:17.084Z,18.80
2017-08-08T16:59:43.378Z,18.90
2017-08-08T17:02:09.713Z,19.10
2017-08-08T17:04:36.344Z,19.20
2017-08-08T17:07:02.680Z,19.10
2017-08-08T17:09:28.984Z,19.00
2017-08-08T17:11:55.284Z,19.20
2017-08-08T17:14:21.996Z,19.10
2017-08-08T17:16:48.361Z,19.10
2017-08-08T17:19:14.767Z,19.10
2017-08-08T17:21:41.090Z,19.10
2017-08-08T17:24:09.011Z,19.10
2017-08-08T17:26:35.523Z,19.00
2017-08-08T17:29:02.712Z,18.80
2017-08-08T17:31:29.414Z,18.50
2017-08-08T17:33:55.765Z,18.60
2017-08-08T17:36:22.284Z,18.80
2017-08-08T17:38:48.677Z,18.70
2017-08-08T17:41:16.038Z,18.70
2017-08-08T17:43:42.384Z,18.80
2017-08-08T17:46:09.026Z,19.00
2017-08-08T17:48:36.453Z,19.10
2017-08-08T17:51:02.744Z,19.10
2017-08-08T17:53:30.000Z,19.20
2017-08-08T17:55:56.315Z,19.30
2017-08-08T17:58:23.016Z,19.30
2017-08-08T18:00:49.303Z,19.20
2017-08-08T18:03:15.593Z,19.20
2017-08-08T18:05:41.935Z,19.10
2017-08-08T18:08:08.221Z,19.20
2017-08-08T18:10:34.518Z,19.20
2017-08-08T18:13:00.805Z,18.90
2017-08-08T18:15:27.984Z,18.90
2017-08-08T18:17:54.293Z,18.90
2017-08-08T18:20:20.866Z,19.00
2017-08-08T18:22:47.177Z,19.00
2017-08-08T18:25:13.491Z,19.00
2017-08-08T18:27:40.145Z,19.10
2017-08-08T18:30:06.525Z,19.10
2017-08-08T18:32:34.865Z,18.80
2017-08-08T18:35:01.362Z,18.80
2017-08-08T18:37:27.689Z,18.70
2017-08-08T18:39:54.125Z,18.50
2017-08-08T18:42:20.837Z,18.60
2017-08-08T18:44:47.205Z,18.60
2017-08-08T18:47:15.350Z,18.50
2017-08-08T18:49:43.083Z,18.50
2017-08-08T18:52:09.954Z,18.60
2017-08-08T18:54:36.447Z,18.70
2017-08-08T18:57:02.764Z,18.60
2017-08-08T18:59:30.084Z,18.60
2017-08-08T19:01:56.914Z,18.50
2017-08-08T19:04:23.438Z,18.60
2017-08-08T19:06:50.122Z,18.70
2017-08-08T19:09:16.433Z,18.80
2017-08-08T19:11:43.263Z,18.60
2017-08-08T19:14:09.949Z,18.70
2017-08-08T19:16:36.347Z,18.70
2017-08-08T19:19:03.148Z,18.60
2017-08-08T19:21:29.686Z,18.60
2017-08-08T19:23:57.094Z,18.70
2017-08-08T19:26:24.815Z,18.60
2017-08-08T19:28:51.657Z,18.60
2017-08-08T19:31:18.052Z,18.60
2017-08-08T19:33:45.278Z,18.70
2017-08-08T19:36:11.606Z,18.50
2017-08-08T19:38:39.233Z,18.60
2017-08-08T19:41:05.972Z,18.60
2017-08-08T19:43:32.384Z,18.60
2017-08-08T19:45:58.719Z,18.70
2017-08-08T19:48:25.108Z,18.60
2017-08-08T19:50:51.794Z,18.70
2017-08-08T19:53:18.269Z,18.70
2017-08-08T19:55:44.721Z,18.70
2017-08-08T19:58:11.245Z,18.50
2017-08-08T20:00:37.685Z,18.60
2017-08-08T20:03:04.029Z,18.60
2017-08-08T20:05:30.335Z,18.60
2017-08-08T20:07:57.671Z,18.50
2017-08-08T20:10:24.824Z,18.30
2017-08-08T20:12:51.444Z,18.10
2017-08-08T20:15:17.718Z,18.10
2017-08-08T20:17:44.002Z,18.20
2017-08-08T20:20:10.415Z,18.30
2017-08-08T20:22:36.797Z,18.30
2017-08-08T20:25:03.114Z,18.30
2017-08-08T20:27:29.405Z,18.30
2017-08-08T20:29:55.737Z,18.00
2017-08-08T20:32:22.046Z,18.00
2017-08-08T20:34:48.328Z,18.10
2017-08-08T20:37:14.615Z,18.20
2017-08-08T20:39:40.878Z,18.20
2017-08-08T20:42:07.349Z,18.00
2017-08-08T20:44:33.708Z,18.00
2017-08-08T20:47:00.873Z,18.00
2017-08-08T20:49:27.423Z,18.00
2017-08-08T20:51:54.791Z,18.00
2017-08-08T20:54:21.354Z,17.90
2017-08-08T20:56:47.988Z,17.60
2017-08-08T20:59:14.658Z,17.60
2017-08-08T21:01:40.930Z,17.60
2017-08-08T21:04:08.575Z,17.60
2017-08-08T21:06:43.394Z,17.60
2017-08-08T21:09:13.247Z,17.70
2017-08-08T21:11:41.846Z,17.60
2017-08-08T21:14:13.490Z,17.50
2017-08-08T21:16:42.200Z,17.60
2017-08-08T21:19:13.622Z,17.70
2017-08-08T21:21:42.194Z,17.60
2017-08-08T21:24:16.599Z,17.60
2017-08-08T21:26:43.482Z,17.60
2017-08-08T21:29:11.768Z,17.90
2017-08-08T21:31:41.157Z,18.20
2017-08-08T21:34:14.321Z,18.10
2017-08-08T21:36:41.861Z,18.10
2017-08-08T21:39:11.170Z,18.00
2017-08-08T21:41:40.419Z,18.10
2017-08-08T21:44:10.141Z,17.90
2017-08-08T21:46:41.031Z,17.80
2017-08-08T21:49:11.324Z,17.60
2017-08-08T21:51:37.610Z,17.60
2017-08-08T21:54:03.936Z,17.60
2017-08-08T21:56:41.421Z,17.80
2017-08-08T21:59:09.594Z,17.70
2017-08-08T22:01:35.905Z,17.70
2017-08-08T22:04:04.598Z,17.50
2017-08-08T22:06:36.853Z,17.30
2017-08-08T22:09:03.204Z,17.30
2017-08-08T22:11:31.355Z,17.20
2017-08-08T22:13:58.885Z,17.30
2017-08-08T22:16:25.661Z,17.20
2017-08-08T22:18:53.759Z,17.30
2017-08-08T22:21:20.070Z,17.20
2017-08-08T22:23:50.337Z,17.10
2017-08-08T22:26:18.641Z,17.10
2017-08-08T22:28:44.922Z,17.20
2017-08-08T22:31:11.599Z,17.00
2017-08-08T22:33:37.907Z,17.00
2017-08-08T22:36:04.236Z,17.10
2017-08-08T22:38:30.523Z,17.20
2017-08-08T22:40:56.842Z,17.30
2017-08-08T22:43:23.117Z,17.30
2017-08-08T22:45:49.749Z,17.60
2017-08-08T22:48:16.029Z,17.60
2017-08-08T22:50:42.313Z,17.80
2017-08-08T22:53:08.616Z,17.70
2017-08-08T22:55:34.898Z,17.60
2017-08-08T22:58:01.230Z,17.70
2017-08-08T23:00:27.523Z,17.60
2017-08-08T23:02:53.802Z,17.70
2017-08-08T23:05:20.118Z,17.70
2017-08-08T23:07:49.428Z,17.70
2017-08-08T23:10:17.297Z,17.70
2017-08-08T23:12:44.582Z,17.60
2017-08-08T23:15:13.826Z,17.60
2017-08-08T23:17:41.074Z,17.50
2017-08-08T23:20:08.366Z,17.40
2017-08-08T23:22:38.701Z,17.40
2017-08-08T23:25:07.772Z,17.40
2017-08-08T23:27:35.561Z,17.50
2017-08-08T23:30:04.830Z,17.60
2017-08-08T23:32:31.506Z,17.70
2017-08-08T23:34:57.770Z,17.60
2017-08-08T23:37:37.280Z,17.80
2017-08-08T23:40:10.502Z,17.90
2017-08-08T23:42:45.316Z,17.90
2017-08-08T23:45:14.359Z,17.80
2017-08-08T23:47:41.602Z,17.80
2017-08-08T23:50:08.569Z,17.70
2017-08-08T23:52:34.847Z,17.60
2017-08-08T23:55:03.968Z,17.70
2017-08-08T23:57:33.810Z,17.70
